• Join FlightAware (Why Join?)
  • Login
  • US Flag 
04:48AM EST


 

Airport Tracker/Info


-or-


 

Live Flight TrackerFlight Track Log ✈ N777NC ✈ 28-Jun-2013 ✈ KBNA - KATL

Flight Track Log - Related Links

Times and Time Zones

All times are in EDT time to prevent confusion due to time zone crossing. See the N777NC flight status page for this flight to view local times or setup timezone preferences in your user account.

Time Position Orientation Groundspeed Altitude Reporting Facility
EDT Latitude Longitude Course Direction KTS MPH feet Rate Location/Type
12:26PM 36.0500 -86.6833 180° South 228 262 3,000  Level Nashville TRACON
12:27PM 35.9833 -86.6667 169° South 243 280 4,600 2,220 Climbing Nashville TRACON
12:28PM 35.9018 -86.4695 145° Southeast  Level Estimated
12:28PM 35.9167 -86.6333 158° South 277 319 7,300  Level Nashville TRACON
12:29PM 35.8177 -86.4202 155° Southeast  Level FlightAware Approximate
12:29PM 35.8464 -86.5694 144° Southeast 314 361 9,900  Level Memphis Center
12:30PM 35.7438 -86.3504 136° Southeast  Level Estimated
12:30PM 35.7711 -86.5014 144° Southeast 327 376 11,100  Level Memphis Center
12:31PM 35.6750 -86.4239 147° Southeast 360 414 13,000 2,100 Climbing Memphis Center
12:32PM 35.5850 -86.3492 146° Southeast 382 440 15,400 2,280 Climbing Memphis Center
12:33PM 35.4931 -86.2772 147° Southeast 388 447 17,600 1,740 Climbing Memphis Center
12:35PM 35.3658 -86.1831 149° Southeast 405 466 19,500 1,320 Climbing Atlanta Center
12:36PM 35.2647 -86.1094 149° Southeast 419 482 20,700 1,200 Climbing Atlanta Center
12:37PM 35.1742 -86.0358 146° Southeast 431 496 21,900 1,380 Climbing Atlanta Center
12:38PM 35.0797 -85.9397 140° Southeast 436 502 23,500 1,500 Climbing Atlanta Center
12:39PM 34.9853 -85.8386 139° Southeast 446 513 24,900 720 Climbing Atlanta Center
12:40PM 34.8886 -85.7403 140° Southeast 451 519 25,000  Climbing Atlanta Center
12:41PM 34.7897 -85.6422 141° Southeast 456 525 25,000 -120 Level Atlanta Center
12:42PM 34.6867 -85.5494 143° Southeast 461 531 24,800 -1,080 Descending Atlanta Center
12:43PM 34.5833 -85.4642 146° Southeast 461 531 22,900 -2,460 Descending Atlanta Center
12:44PM 34.4797 -85.3869 148° Southeast 447 514 19,900 -2,760 Descending Atlanta Center
12:45PM 34.3722 -85.2972 145° Southeast 442 509 17,400 -2,340 Descending Atlanta Center
12:46PM 34.2833 -85.2128 142° Southeast 420 483 15,300 -1,800 Descending Atlanta Center
12:47PM 34.1942 -85.1364 145° Southeast 408 470 13,900 -660 Descending Atlanta Center
12:48PM 34.1178 -85.0475 136° Southeast 394 453 14,000 -120 Climbing Atlanta Center
12:49PM 34.0414 -84.9489 133° Southeast 389 448 13,700 -780 Descending Atlanta Center
12:50PM 33.9564 -84.8653 141° Southeast 389 448 12,500 -900 Descending Atlanta Center
12:51PM 33.8778 -84.7694 135° Southeast 400 460 12,000 -300 Descending Atlanta Center
12:52PM 33.8072 -84.6764 132° Southeast 390 449 12,000  Level Atlanta Center
12:53PM 33.7617 -84.5886 122° Southeast 336 387 12,000 -540 Level Atlanta Center
12:54PM 33.7411 -84.5008 106° East 285 328 11,000 -1,500 Descending Atlanta Center
12:55PM 33.7394 -84.4136 91° East 267 307 9,100 -1,620 Descending Atlanta Center
12:56PM 33.7500 -84.3167 83° East 223 257 7,300 -1,440 Descending Atlanta TRACON
12:57PM 33.7500 -84.2333 90° East 223 257 5,800 -1,200 Descending Atlanta TRACON
12:58PM 33.7500 -84.1667 90° East 224 258 5,000 -480 Descending Atlanta TRACON
12:59PM 33.7167 -84.1167 129° Southeast 231 266 5,000  Level Atlanta TRACON
01:00PM 33.6500 -84.1167 180° South 210 242 5,000 -180 Level Atlanta TRACON
01:01PM 33.6500 -84.1667 270° West 162 186 4,700 -600 Descending Atlanta TRACON
01:02PM 33.6500 -84.2333 270° West 177 204 3,800 -900 Descending Atlanta TRACON